sensor_id;sensor_type;location;lat;lon;timestamp;pressure;altitude;pressure_sealevel;temperature;humidity
68712;BME280;55690;51.566;19.198;2022-10-22T00:02:30;101421.06;;;9.67;100.00
68712;BME280;55690;51.566;19.198;2022-10-22T00:06:35;101421.61;;;9.58;100.00
68712;BME280;55690;51.566;19.198;2022-10-22T00:10:42;101421.25;;;9.64;100.00
68712;BME280;55690;51.566;19.198;2022-10-22T00:14:48;101418.71;;;9.61;100.00
68712;BME280;55690;51.566;19.198;2022-10-22T00:18:54;101410.37;;;9.50;100.00
68712;BME280;55690;51.566;19.198;2022-10-22T00:23:00;101421.51;;;9.60;100.00
68712;BME280;55690;51.566;19.198;2022-10-22T00:27:08;101415.22;;;9.59;100.00
68712;BME280;55690;51.566;19.198;2022-10-22T00:31:13;101409.89;;;9.58;100.00
68712;BME280;55690;51.566;19.198;2022-10-22T00:35:19;101416.60;;;9.66;100.00
68712;BME280;55690;51.566;19.198;2022-10-22T00:39:26;101421.33;;;9.63;100.00
68712;BME280;55690;51.566;19.198;2022-10-22T00:43:31;101414.48;;;9.42;100.00
68712;BME280;55690;51.566;19.198;2022-10-22T00:47:47;101407.83;;;9.47;100.00
68712;BME280;55690;51.566;19.198;2022-10-22T00:51:49;101409.94;;;9.42;100.00
68712;BME280;55690;51.566;19.198;2022-10-22T00:55:52;101384.39;;;9.46;100.00
68712;BME280;55690;51.566;19.198;2022-10-22T00:59:56;101387.49;;;9.54;100.00
68712;BME280;55690;51.566;19.198;2022-10-22T01:04:02;101382.48;;;9.48;100.00
68712;BME280;55690;51.566;19.198;2022-10-22T01:08:19;101379.28;;;9.56;100.00
68712;BME280;55690;51.566;19.198;2022-10-22T01:25:27;101385.63;;;9.41;100.00
68712;BME280;55690;51.566;19.198;2022-10-22T01:29:26;101372.85;;;9.43;100.00
68712;BME280;55690;51.566;19.198;2022-10-22T01:33:30;101379.93;;;9.45;100.00
68712;BME280;55690;51.566;19.198;2022-10-22T01:37:46;101362.71;;;9.46;100.00
68712;BME280;55690;51.566;19.198;2022-10-22T01:41:43;101357.55;;;9.42;100.00
68712;BME280;55690;51.566;19.198;2022-10-22T01:45:51;101353.37;;;9.36;100.00
68712;BME280;55690;51.566;19.198;2022-10-22T01:58:21;101346.66;;;9.27;100.00
68712;BME280;55690;51.566;19.198;2022-10-22T02:06:42;101339.22;;;9.31;100.00
68712;BME280;55690;51.566;19.198;2022-10-22T02:10:46;101337.90;;;9.38;100.00
68712;BME280;55690;51.566;19.198;2022-10-22T02:14:50;101335.18;;;9.38;100.00
68712;BME280;55690;51.566;19.198;2022-10-22T02:18:57;101326.02;;;9.25;100.00
68712;BME280;55690;51.566;19.198;2022-10-22T02:23:03;101319.64;;;9.26;100.00
68712;BME280;55690;51.566;19.198;2022-10-22T02:31:23;101324.82;;;9.15;100.00
68712;BME280;55690;51.566;19.198;2022-10-22T02:35:28;101349.29;;;9.13;100.00
68712;BME280;55690;51.566;19.198;2022-10-22T02:39:32;101374.89;;;9.23;100.00
68712;BME280;55690;51.566;19.198;2022-10-22T02:43:43;101379.01;;;9.15;100.00
68712;BME280;55690;51.566;19.198;2022-10-22T02:47:45;101375.86;;;9.22;100.00
68712;BME280;55690;51.566;19.198;2022-10-22T02:56:02;101395.34;;;9.29;100.00
68712;BME280;55690;51.566;19.198;2022-10-22T03:00:05;101348.84;;;9.21;100.00
68712;BME280;55690;51.566;19.198;2022-10-22T03:04:08;101340.71;;;9.21;100.00
68712;BME280;55690;51.566;19.198;2022-10-22T03:08:10;101341.07;;;9.15;100.00
68712;BME280;55690;51.566;19.198;2022-10-22T03:12:12;101353.21;;;9.23;100.00
68712;BME280;55690;51.566;19.198;2022-10-22T03:16:13;101354.52;;;9.32;100.00
68712;BME280;55690;51.566;19.198;2022-10-22T03:20:15;101342.28;;;9.25;100.00
68712;BME280;55690;51.566;19.198;2022-10-22T03:24:21;101339.40;;;9.28;100.00
68712;BME280;55690;51.566;19.198;2022-10-22T03:28:24;101316.66;;;9.30;100.00
68712;BME280;55690;51.566;19.198;2022-10-22T03:32:27;101317.77;;;9.42;100.00
68712;BME280;55690;51.566;19.198;2022-10-22T03:36:28;101316.72;;;9.45;100.00
68712;BME280;55690;51.566;19.198;2022-10-22T03:40:31;101321.27;;;9.44;100.00
68712;BME280;55690;51.566;19.198;2022-10-22T03:44:35;101319.71;;;9.40;100.00
68712;BME280;55690;51.566;19.198;2022-10-22T03:48:44;101337.12;;;9.36;100.00
68712;BME280;55690;51.566;19.198;2022-10-22T03:52:45;101335.63;;;9.30;100.00
68712;BME280;55690;51.566;19.198;2022-10-22T03:56:47;101348.73;;;9.38;100.00
68712;BME280;55690;51.566;19.198;2022-10-22T04:00:49;101348.38;;;9.44;100.00
68712;BME280;55690;51.566;19.198;2022-10-22T04:04:51;101339.45;;;9.42;100.00
68712;BME280;55690;51.566;19.198;2022-10-22T04:08:53;101343.22;;;9.40;100.00
68712;BME280;55690;51.566;19.198;2022-10-22T04:12:54;101336.15;;;9.37;100.00
68712;BME280;55690;51.566;19.198;2022-10-22T04:16:56;101339.45;;;9.42;100.00
68712;BME280;55690;51.566;19.198;2022-10-22T04:21:00;101342.28;;;9.25;100.00
68712;BME280;55690;51.566;19.198;2022-10-22T04:25:07;101336.86;;;9.25;100.00
68712;BME280;55690;51.566;19.198;2022-10-22T04:29:13;101323.38;;;9.39;100.00
68712;BME280;55690;51.566;19.198;2022-10-22T04:37:25;101315.06;;;9.42;100.00
68712;BME280;55690;51.566;19.198;2022-10-22T04:41:33;101308.58;;;9.45;100.00
68712;BME280;55690;51.566;19.198;2022-10-22T04:45:37;101307.21;;;9.38;100.00
68712;BME280;55690;51.566;19.198;2022-10-22T04:49:43;101309.55;;;9.44;100.00
68712;BME280;55690;51.566;19.198;2022-10-22T04:53:50;101311.48;;;9.42;100.00
68712;BME280;55690;51.566;19.198;2022-10-22T04:57:56;101311.66;;;9.39;100.00
68712;BME280;55690;51.566;19.198;2022-10-22T05:02:02;101294.52;;;9.38;100.00
68712;BME280;55690;51.566;19.198;2022-10-22T05:06:09;101289.88;;;9.40;100.00
68712;BME280;55690;51.566;19.198;2022-10-22T05:10:14;101308.41;;;9.48;100.00
68712;BME280;55690;51.566;19.198;2022-10-22T05:14:22;101322.34;;;9.56;100.00
68712;BME280;55690;51.566;19.198;2022-10-22T05:18:27;101314.98;;;9.58;100.00
68712;BME280;55690;51.566;19.198;2022-10-22T05:22:33;101301.84;;;9.52;100.00
68712;BME280;55690;51.566;19.198;2022-10-22T05:26:39;101294.07;;;9.60;100.00
68712;BME280;55690;51.566;19.198;2022-10-22T05:30:52;101300.73;;;9.54;100.00
68712;BME280;55690;51.566;19.198;2022-10-22T05:34:54;101299.59;;;9.58;100.00
68712;BME280;55690;51.566;19.198;2022-10-22T05:38:58;101296.50;;;9.50;100.00
68712;BME280;55690;51.566;19.198;2022-10-22T05:43:04;101314.02;;;9.59;100.00
68712;BME280;55690;51.566;19.198;2022-10-22T05:47:10;101317.33;;;9.64;100.00
68712;BME280;55690;51.566;19.198;2022-10-22T05:51:17;101319.85;;;9.67;100.00
68712;BME280;55690;51.566;19.198;2022-10-22T05:55:22;101324.73;;;9.76;100.00
68712;BME280;55690;51.566;19.198;2022-10-22T05:59:28;101338.97;;;9.80;100.00
68712;BME280;55690;51.566;19.198;2022-10-22T06:03:34;101349.82;;;9.80;100.00
68712;BME280;55690;51.566;19.198;2022-10-22T06:07:41;101372.85;;;9.73;100.00
68712;BME280;55690;51.566;19.198;2022-10-22T06:11:47;101383.00;;;9.69;100.00
68712;BME280;55690;51.566;19.198;2022-10-22T06:15:53;101382.92;;;9.71;100.00
68712;BME280;55690;51.566;19.198;2022-10-22T06:19:59;101359.89;;;9.78;100.00
68712;BME280;55690;51.566;19.198;2022-10-22T06:24:06;101362.92;;;9.87;100.00
68712;BME280;55690;51.566;19.198;2022-10-22T06:28:11;101342.18;;;9.86;100.00
68712;BME280;55690;51.566;19.198;2022-10-22T06:32:18;101345.08;;;9.97;100.00
68712;BME280;55690;51.566;19.198;2022-10-22T06:36:24;101344.82;;;10.16;100.00
68712;BME280;55690;51.566;19.198;2022-10-22T06:40:31;101360.57;;;10.25;100.00
68712;BME280;55690;51.566;19.198;2022-10-22T06:44:37;101364.55;;;10.34;100.00
68712;BME280;55690;51.566;19.198;2022-10-22T06:48:48;101367.53;;;10.44;100.00
68712;BME280;55690;51.566;19.198;2022-10-22T06:52:49;101366.08;;;10.52;100.00
68712;BME280;55690;51.566;19.198;2022-10-22T06:56:55;101380.82;;;10.48;100.00
68712;BME280;55690;51.566;19.198;2022-10-22T07:01:09;101392.16;;;10.55;100.00
68712;BME280;55690;51.566;19.198;2022-10-22T07:05:12;101415.92;;;10.51;100.00
68712;BME280;55690;51.566;19.198;2022-10-22T07:09:15;101418.23;;;10.43;100.00
68712;BME280;55690;51.566;19.198;2022-10-22T07:13:19;101419.44;;;10.39;100.00
68712;BME280;55690;51.566;19.198;2022-10-22T07:17:26;101437.55;;;10.53;100.00
68712;BME280;55690;51.566;19.198;2022-10-22T07:21:32;101426.80;;;10.37;100.00
68712;BME280;55690;51.566;19.198;2022-10-22T07:25:39;101413.78;;;10.42;100.00
68712;BME280;55690;51.566;19.198;2022-10-22T07:29:44;101407.48;;;10.42;100.00
68712;BME280;55690;51.566;19.198;2022-10-22T07:33:50;101408.17;;;10.59;100.00
68712;BME280;55690;51.566;19.198;2022-10-22T07:37:56;101398.28;;;10.58;100.00
68712;BME280;55690;51.566;19.198;2022-10-22T07:42:03;101389.84;;;10.63;100.00
68712;BME280;55690;51.566;19.198;2022-10-22T07:46:09;101390.90;;;10.75;100.00
68712;BME280;55690;51.566;19.198;2022-10-22T07:54:22;101395.30;;;11.04;100.00
68712;BME280;55690;51.566;19.198;2022-10-22T07:58:31;101395.47;;;11.15;100.00
68712;BME280;55690;51.566;19.198;2022-10-22T08:02:34;101398.70;;;11.08;100.00
68712;BME280;55690;51.566;19.198;2022-10-22T08:10:51;101387.02;;;11.20;100.00
68712;BME280;55690;51.566;19.198;2022-10-22T08:18:58;101412.59;;;11.30;100.00
68712;BME280;55690;51.566;19.198;2022-10-22T08:23:05;101412.55;;;11.44;100.00
68712;BME280;55690;51.566;19.198;2022-10-22T08:27:11;101420.10;;;11.53;100.00
68712;BME280;55690;51.566;19.198;2022-10-22T08:31:17;101415.95;;;11.48;100.00
68712;BME280;55690;51.566;19.198;2022-10-22T08:35:26;101401.42;;;11.61;100.00
68712;BME280;55690;51.566;19.198;2022-10-22T08:39:29;101395.88;;;11.63;100.00
68712;BME280;55690;51.566;19.198;2022-10-22T08:43:47;101413.50;;;11.70;100.00
68712;BME280;55690;51.566;19.198;2022-10-22T08:52:07;101414.77;;;11.79;100.00
68712;BME280;55690;51.566;19.198;2022-10-22T08:56:13;101410.87;;;11.83;100.00
68712;BME280;55690;51.566;19.198;2022-10-22T09:04:38;101414.17;;;12.01;100.00
68712;BME280;55690;51.566;19.198;2022-10-22T09:08:45;101428.30;;;11.93;100.00
68712;BME280;55690;51.566;19.198;2022-10-22T09:12:48;101430.30;;;12.04;100.00
68712;BME280;55690;51.566;19.198;2022-10-22T09:21:28;101432.38;;;12.13;100.00
68712;BME280;55690;51.566;19.198;2022-10-22T09:25:27;101438.80;;;12.12;100.00
68712;BME280;55690;51.566;19.198;2022-10-22T09:33:33;101431.93;;;12.19;100.00
68712;BME280;55690;51.566;19.198;2022-10-22T09:41:48;101423.87;;;12.17;100.00
68712;BME280;55690;51.566;19.198;2022-10-22T09:45:57;101432.83;;;12.32;100.00
68712;BME280;55690;51.566;19.198;2022-10-22T09:54:36;101461.70;;;12.35;100.00
68712;BME280;55690;51.566;19.198;2022-10-22T10:02:42;101469.73;;;12.23;100.00
68712;BME280;55690;51.566;19.198;2022-10-22T10:06:44;101464.49;;;12.20;100.00
68712;BME280;55690;51.566;19.198;2022-10-22T10:10:55;101454.28;;;12.11;100.00
68712;BME280;55690;51.566;19.198;2022-10-22T10:23:35;101427.50;;;12.43;100.00
68712;BME280;55690;51.566;19.198;2022-10-22T10:27:43;101426.08;;;12.50;100.00
68712;BME280;55690;51.566;19.198;2022-10-22T10:40:26;101437.27;;;12.58;100.00
68712;BME280;55690;51.566;19.198;2022-10-22T10:48:49;101424.02;;;12.54;100.00
68712;BME280;55690;51.566;19.198;2022-10-22T11:01:29;101420.38;;;12.91;100.00
68712;BME280;55690;51.566;19.198;2022-10-22T11:09:54;101410.90;;;12.84;100.00
68712;BME280;55690;51.566;19.198;2022-10-22T11:18:19;101416.99;;;12.88;100.00
68712;BME280;55690;51.566;19.198;2022-10-22T11:22:33;101417.30;;;12.96;100.00
68712;BME280;55690;51.566;19.198;2022-10-22T11:26:48;101417.11;;;12.86;100.00
68712;BME280;55690;51.566;19.198;2022-10-22T11:31:02;101384.84;;;12.80;100.00
68712;BME280;55690;51.566;19.198;2022-10-22T11:35:07;101414.41;;;13.10;100.00
68712;BME280;55690;51.566;19.198;2022-10-22T11:51:46;101406.23;;;13.10;100.00
68712;BME280;55690;51.566;19.198;2022-10-22T11:59:58;101430.57;;;13.00;100.00
68712;BME280;55690;51.566;19.198;2022-10-22T12:12:22;101415.85;;;13.16;100.00
68712;BME280;55690;51.566;19.198;2022-10-22T12:16:25;101409.41;;;13.17;100.00
68712;BME280;55690;51.566;19.198;2022-10-22T12:20:28;101396.43;;;13.20;100.00
68712;BME280;55690;51.566;19.198;2022-10-22T12:24:35;101398.17;;;13.21;100.00
68712;BME280;55690;51.566;19.198;2022-10-22T12:28:41;101394.69;;;13.19;100.00
68712;BME280;55690;51.566;19.198;2022-10-22T12:36:50;101401.23;;;13.17;100.00
68712;BME280;55690;51.566;19.198;2022-10-22T12:40:54;101399.27;;;13.19;100.00
68712;BME280;55690;51.566;19.198;2022-10-22T12:44:57;101403.40;;;13.24;100.00
68712;BME280;55690;51.566;19.198;2022-10-22T12:49:00;101401.31;;;13.28;100.00
68712;BME280;55690;51.566;19.198;2022-10-22T12:53:14;101398.37;;;13.31;100.00
68712;BME280;55690;51.566;19.198;2022-10-22T12:57:19;101388.32;;;13.31;100.00
68712;BME280;55690;51.566;19.198;2022-10-22T13:01:33;101391.16;;;13.30;100.00
68712;BME280;55690;51.566;19.198;2022-10-22T13:05:36;101393.23;;;13.50;100.00
68712;BME280;55690;51.566;19.198;2022-10-22T13:09:55;101394.28;;;13.60;100.00
68712;BME280;55690;51.566;19.198;2022-10-22T13:14:05;101393.64;;;13.57;100.00
68712;BME280;55690;51.566;19.198;2022-10-22T13:26:34;101389.52;;;13.51;100.00
68712;BME280;55690;51.566;19.198;2022-10-22T13:30:37;101386.76;;;13.40;100.00
68712;BME280;55690;51.566;19.198;2022-10-22T13:34:44;101386.12;;;13.37;100.00
68712;BME280;55690;51.566;19.198;2022-10-22T13:38:45;101382.52;;;13.36;100.00
68712;BME280;55690;51.566;19.198;2022-10-22T13:42:47;101382.63;;;13.35;100.00
68712;BME280;55690;51.566;19.198;2022-10-22T13:46:50;101373.70;;;13.33;100.00
68712;BME280;55690;51.566;19.198;2022-10-22T13:50:52;101374.68;;;13.31;100.00
68712;BME280;55690;51.566;19.198;2022-10-22T13:54:54;101365.10;;;13.26;100.00
68712;BME280;55690;51.566;19.198;2022-10-22T13:58:57;101366.95;;;13.25;100.00
68712;BME280;55690;51.566;19.198;2022-10-22T14:02:59;101367.94;;;13.24;100.00
68712;BME280;55690;51.566;19.198;2022-10-22T14:07:01;101367.37;;;13.32;100.00
68712;BME280;55690;51.566;19.198;2022-10-22T14:11:04;101369.34;;;13.30;100.00
68712;BME280;55690;51.566;19.198;2022-10-22T14:15:08;101368.59;;;13.28;100.00
68712;BME280;55690;51.566;19.198;2022-10-22T14:19:15;101374.26;;;13.25;100.00
68712;BME280;55690;51.566;19.198;2022-10-22T14:23:19;101374.15;;;13.26;100.00
68712;BME280;55690;51.566;19.198;2022-10-22T14:27:21;101373.17;;;13.15;100.00
68712;BME280;55690;51.566;19.198;2022-10-22T14:31:23;101378.84;;;13.24;100.00
68712;BME280;55690;51.566;19.198;2022-10-22T14:35:25;101390.52;;;13.26;100.00
68712;BME280;55690;51.566;19.198;2022-10-22T14:39:27;101388.43;;;13.30;100.00
68712;BME280;55690;51.566;19.198;2022-10-22T14:43:29;101392.48;;;13.24;100.00
68712;BME280;55690;51.566;19.198;2022-10-22T14:47:34;101397.30;;;13.21;100.00
68712;BME280;55690;51.566;19.198;2022-10-22T14:51:36;101389.54;;;13.15;100.00
68712;BME280;55690;51.566;19.198;2022-10-22T14:55:39;101396.77;;;13.16;100.00
68712;BME280;55690;51.566;19.198;2022-10-22T14:59:43;101389.88;;;13.10;100.00
68712;BME280;55690;51.566;19.198;2022-10-22T15:03:44;101393.59;;;13.09;100.00
68712;BME280;55690;51.566;19.198;2022-10-22T15:07:46;101389.68;;;13.00;100.00
68712;BME280;55690;51.566;19.198;2022-10-22T15:11:49;101401.60;;;12.99;100.00
68712;BME280;55690;51.566;19.198;2022-10-22T15:15:51;101412.14;;;13.04;100.00
68712;BME280;55690;51.566;19.198;2022-10-22T15:19:53;101407.89;;;13.00;100.00
68712;BME280;55690;51.566;19.198;2022-10-22T15:24:00;101409.14;;;12.96;100.00
68712;BME280;55690;51.566;19.198;2022-10-22T15:28:01;101415.36;;;12.85;100.00
68712;BME280;55690;51.566;19.198;2022-10-22T15:32:04;101417.98;;;12.87;100.00
68712;BME280;55690;51.566;19.198;2022-10-22T15:36:14;101416.34;;;12.84;100.00
68712;BME280;55690;51.566;19.198;2022-10-22T15:40:17;101423.54;;;12.85;100.00
68712;BME280;55690;51.566;19.198;2022-10-22T15:48:25;101422.67;;;12.85;100.00
68712;BME280;55690;51.566;19.198;2022-10-22T15:54:27;101423.65;;;12.84;100.00
68712;BME280;55690;51.566;19.198;2022-10-22T15:58:35;101428.45;;;12.80;100.00
68712;BME280;55690;51.566;19.198;2022-10-22T16:02:39;101435.87;;;12.78;100.00
68712;BME280;55690;51.566;19.198;2022-10-22T16:10:52;101449.27;;;12.81;100.00
68712;BME280;55690;51.566;19.198;2022-10-22T16:14:56;101454.84;;;12.80;100.00
68712;BME280;55690;51.566;19.198;2022-10-22T16:23:09;101461.03;;;12.82;100.00
68712;BME280;55690;51.566;19.198;2022-10-22T16:27:15;101464.86;;;12.79;100.00
68712;BME280;55690;51.566;19.198;2022-10-22T16:31:21;101471.95;;;12.82;100.00
68712;BME280;55690;51.566;19.198;2022-10-22T16:35:27;101471.19;;;12.80;100.00
68712;BME280;55690;51.566;19.198;2022-10-22T16:39:33;101480.23;;;12.80;100.00
68712;BME280;55690;51.566;19.198;2022-10-22T16:43:40;101475.33;;;12.85;100.00
68712;BME280;55690;51.566;19.198;2022-10-22T16:47:50;101481.87;;;12.83;100.00
68712;BME280;55690;51.566;19.198;2022-10-22T16:55:58;101489.61;;;12.76;100.00
68712;BME280;55690;51.566;19.198;2022-10-22T17:00:05;101496.25;;;12.72;100.00
68712;BME280;55690;51.566;19.198;2022-10-22T17:04:10;101498.55;;;12.78;100.00
68712;BME280;55690;51.566;19.198;2022-10-22T17:08:16;101492.98;;;12.80;100.00
68712;BME280;55690;51.566;19.198;2022-10-22T17:12:23;101499.84;;;12.73;100.00
68712;BME280;55690;51.566;19.198;2022-10-22T17:16:29;101502.70;;;12.84;100.00
68712;BME280;55690;51.566;19.198;2022-10-22T17:20:39;101494.07;;;12.77;100.00
68712;BME280;55690;51.566;19.198;2022-10-22T17:24:41;101496.70;;;12.79;100.00
68712;BME280;55690;51.566;19.198;2022-10-22T17:28:48;101493.96;;;12.79;100.00
68712;BME280;55690;51.566;19.198;2022-10-22T17:41:19;101497.67;;;12.78;100.00
68712;BME280;55690;51.566;19.198;2022-10-22T17:45:23;101505.74;;;12.79;100.00
68712;BME280;55690;51.566;19.198;2022-10-22T17:49:28;101507.49;;;12.80;100.00
68712;BME280;55690;51.566;19.198;2022-10-22T17:53:40;101518.82;;;12.74;100.00
68712;BME280;55690;51.566;19.198;2022-10-22T17:57:46;101525.80;;;12.78;100.00
68712;BME280;55690;51.566;19.198;2022-10-22T18:01:52;101522.31;;;12.76;100.00
68712;BME280;55690;51.566;19.198;2022-10-22T18:05:55;101531.78;;;12.71;100.00
68712;BME280;55690;51.566;19.198;2022-10-22T18:09:56;101538.66;;;12.76;100.00
68712;BME280;55690;51.566;19.198;2022-10-22T18:13:59;101541.17;;;12.79;100.00
68712;BME280;55690;51.566;19.198;2022-10-22T18:18:02;101538.66;;;12.76;100.00
68712;BME280;55690;51.566;19.198;2022-10-22T18:22:07;101545.86;;;12.77;100.00
68712;BME280;55690;51.566;19.198;2022-10-22T18:26:14;101548.05;;;12.85;100.00
68712;BME280;55690;51.566;19.198;2022-10-22T18:30:20;101552.63;;;12.84;100.00
68712;BME280;55690;51.566;19.198;2022-10-22T18:34:26;101555.23;;;12.73;100.00
68712;BME280;55690;51.566;19.198;2022-10-22T18:38:33;101550.33;;;12.78;100.00
68712;BME280;55690;51.566;19.198;2022-10-22T18:42:38;101555.12;;;12.75;100.00
68712;BME280;55690;51.566;19.198;2022-10-22T18:46:44;101554.14;;;12.76;100.00
68712;BME280;55690;51.566;19.198;2022-10-22T18:50:57;101552.50;;;12.73;100.00
68712;BME280;55690;51.566;19.198;2022-10-22T18:55:00;101564.27;;;12.74;100.00
68712;BME280;55690;51.566;19.198;2022-10-22T18:59:03;101571.02;;;12.68;100.00
68712;BME280;55690;51.566;19.198;2022-10-22T19:03:12;101576.27;;;12.71;100.00
68712;BME280;55690;51.566;19.198;2022-10-22T19:07:15;101576.82;;;12.76;100.00
68712;BME280;55690;51.566;19.198;2022-10-22T19:11:22;101589.88;;;12.71;100.00
68712;BME280;55690;51.566;19.198;2022-10-22T19:15:28;101593.48;;;12.72;100.00
68712;BME280;55690;51.566;19.198;2022-10-22T19:19:34;101595.13;;;12.74;100.00
68712;BME280;55690;51.566;19.198;2022-10-22T19:23:40;101596.55;;;12.80;100.00
68712;BME280;55690;51.566;19.198;2022-10-22T19:27:46;101608.23;;;12.82;100.00
68712;BME280;55690;51.566;19.198;2022-10-22T19:31:52;101606.38;;;12.82;100.00
68712;BME280;55690;51.566;19.198;2022-10-22T19:36:03;101617.17;;;12.84;100.00
68712;BME280;55690;51.566;19.198;2022-10-22T19:40:06;101617.48;;;12.79;100.00
68712;BME280;55690;51.566;19.198;2022-10-22T19:44:11;101622.38;;;12.74;100.00
68712;BME280;55690;51.566;19.198;2022-10-22T19:48:17;101625.98;;;12.75;100.00
68712;BME280;55690;51.566;19.198;2022-10-22T19:52:23;101627.95;;;12.73;100.00
68712;BME280;55690;51.566;19.198;2022-10-22T19:56:31;101633.49;;;12.71;100.00
68712;BME280;55690;51.566;19.198;2022-10-22T20:00:37;101648.34;;;12.80;100.00
68712;BME280;55690;51.566;19.198;2022-10-22T20:04:42;101648.45;;;12.78;100.00
68712;BME280;55690;51.566;19.198;2022-10-22T20:08:48;101651.16;;;12.78;100.00
68712;BME280;55690;51.566;19.198;2022-10-22T20:12:54;101652.71;;;12.82;100.00
68712;BME280;55690;51.566;19.198;2022-10-22T20:17:00;101650.19;;;12.79;100.00
68712;BME280;55690;51.566;19.198;2022-10-22T20:21:09;101665.36;;;12.83;100.00
68712;BME280;55690;51.566;19.198;2022-10-22T20:25:13;101665.78;;;12.77;100.00
68712;BME280;55690;51.566;19.198;2022-10-22T20:29:22;101670.71;;;12.85;100.00
68712;BME280;55690;51.566;19.198;2022-10-22T20:33:25;101668.65;;;12.88;100.00
68712;BME280;55690;51.566;19.198;2022-10-22T20:37:32;101662.12;;;12.91;100.00
68712;BME280;55690;51.566;19.198;2022-10-22T20:41:37;101665.04;;;12.88;100.00
68712;BME280;55690;51.566;19.198;2022-10-22T20:45:43;101675.53;;;12.94;100.00
68712;BME280;55690;51.566;19.198;2022-10-22T20:49:49;101666.38;;;12.95;100.00
68712;BME280;55690;51.566;19.198;2022-10-22T20:53:56;101672.91;;;13.05;100.00
68712;BME280;55690;51.566;19.198;2022-10-22T20:58:02;101680.77;;;12.97;100.00
68712;BME280;55690;51.566;19.198;2022-10-22T21:02:09;101683.81;;;12.92;100.00
68712;BME280;55690;51.566;19.198;2022-10-22T21:06:16;101680.53;;;13.00;100.00
68712;BME280;55690;51.566;19.198;2022-10-22T21:10:23;101687.20;;;12.96;100.00
68712;BME280;55690;51.566;19.198;2022-10-22T21:14:31;101693.32;;;12.99;100.00
68712;BME280;55690;51.566;19.198;2022-10-22T21:18:33;101688.71;;;13.00;100.00
68712;BME280;55690;51.566;19.198;2022-10-22T21:22:39;101692.21;;;13.02;100.00
68712;BME280;55690;51.566;19.198;2022-10-22T21:26:45;101691.89;;;13.07;100.00
68712;BME280;55690;51.566;19.198;2022-10-22T21:30:51;101689.83;;;13.10;100.00
68712;BME280;55690;51.566;19.198;2022-10-22T21:34:57;101690.70;;;12.98;100.00
68712;BME280;55690;51.566;19.198;2022-10-22T21:39:04;101707.27;;;13.08;100.00
68712;BME280;55690;51.566;19.198;2022-10-22T21:43:10;101705.32;;;13.10;100.00
68712;BME280;55690;51.566;19.198;2022-10-22T21:47:16;101701.72;;;13.09;100.00
68712;BME280;55690;51.566;19.198;2022-10-22T21:51:23;101706.85;;;13.14;100.00
68712;BME280;55690;51.566;19.198;2022-10-22T21:55:28;101708.71;;;13.13;100.00
68712;BME280;55690;51.566;19.198;2022-10-22T21:59:35;101712.30;;;13.14;100.00
68712;BME280;55690;51.566;19.198;2022-10-22T22:03:43;101711.92;;;13.20;100.00
68712;BME280;55690;51.566;19.198;2022-10-22T22:07:47;101713.56;;;13.22;100.00
68712;BME280;55690;51.566;19.198;2022-10-22T22:11:53;101719.34;;;13.18;100.00
68712;BME280;55690;51.566;19.198;2022-10-22T22:16:04;101719.89;;;13.23;100.00
68712;BME280;55690;51.566;19.198;2022-10-22T22:20:06;101727.20;;;13.22;100.00
68712;BME280;55690;51.566;19.198;2022-10-22T22:24:11;101724.15;;;13.27;100.00
68712;BME280;55690;51.566;19.198;2022-10-22T22:28:18;101722.97;;;13.31;100.00
68712;BME280;55690;51.566;19.198;2022-10-22T22:32:24;101735.62;;;13.32;100.00
68712;BME280;55690;51.566;19.198;2022-10-22T22:36:35;101725.23;;;13.24;100.00
68712;BME280;55690;51.566;19.198;2022-10-22T22:40:38;101735.62;;;13.32;100.00
68712;BME280;55690;51.566;19.198;2022-10-22T22:44:42;101737.57;;;13.30;100.00
68712;BME280;55690;51.566;19.198;2022-10-22T22:48:48;101727.55;;;13.30;100.00
68712;BME280;55690;51.566;19.198;2022-10-22T22:52:55;101735.51;;;13.34;100.00
68712;BME280;55690;51.566;19.198;2022-10-22T22:57:01;101739.88;;;13.36;100.00
68712;BME280;55690;51.566;19.198;2022-10-22T23:01:17;101727.13;;;13.37;100.00
68712;BME280;55690;51.566;19.198;2022-10-22T23:05:20;101737.27;;;13.35;100.00
68712;BME280;55690;51.566;19.198;2022-10-22T23:09:21;101748.84;;;13.38;100.00
68712;BME280;55690;51.566;19.198;2022-10-22T23:13:26;101739.99;;;13.35;100.00
68712;BME280;55690;51.566;19.198;2022-10-22T23:17:32;101746.84;;;13.27;100.00
68712;BME280;55690;51.566;19.198;2022-10-22T23:21:40;101756.68;;;13.30;100.00
68712;BME280;55690;51.566;19.198;2022-10-22T23:25:44;101760.38;;;13.29;100.00
68712;BME280;55690;51.566;19.198;2022-10-22T23:29:50;101761.46;;;13.26;100.00
68712;BME280;55690;51.566;19.198;2022-10-22T23:33:57;101759.05;;;13.22;100.00
68712;BME280;55690;51.566;19.198;2022-10-22T23:38:02;101758.66;;;13.14;100.00
68712;BME280;55690;51.566;19.198;2022-10-22T23:42:09;101769.57;;;13.14;100.00
68712;BME280;55690;51.566;19.198;2022-10-22T23:46:15;101771.64;;;13.10;100.00
68712;BME280;55690;51.566;19.198;2022-10-22T23:50:21;101774.15;;;13.13;100.00
68712;BME280;55690;51.566;19.198;2022-10-22T23:54:27;101785.06;;;13.13;100.00
68712;BME280;55690;51.566;19.198;2022-10-22T23:58:34;101776.98;;;13.12;100.00
